Time;durP1;ratioP1;P1;durP2;ratioP2;P2;SDS_P1;SDS_P2;PMS_P1;PMS_P2;Temp;Humidity;BMP_temperature;BMP_pressure;BME280_temperature;BME280_humidity;BME280_pressure;Samples;Min_cycle;Max_cycle;Signal;HPM_P1;HPM_P2
2022/01/29 00:00:34;;;;;;;11.60;6.60;;;;;;;;;;5034806;28;20487;-91
2022/01/29 00:03:02;;;;;;;12.53;8.73;;;;;;;;;;5034801;28;20461;-88
2022/01/29 00:05:29;;;;;;;16.33;8.87;;;;;;;;;;5035770;28;20443;-94
2022/01/29 00:07:56;;;;;;;8.43;5.50;;;;;;;;;;5034893;28;20959;-91
2022/01/29 00:10:24;;;;;;;11.03;8.70;;;;;;;;;;5034982;28;20951;-90
2022/01/29 00:12:52;;;;;;;10.77;7.10;;;;;;;;;;5033174;28;20480;-90
2022/01/29 00:15:20;;;;;;;16.10;7.20;;;;;;;;;;5035040;28;20455;-92
2022/01/29 00:17:47;;;;;;;12.37;6.97;;;;;;;;;;5033647;28;20448;-91
2022/01/29 00:20:14;;;;;;;11.00;6.83;;;;;;;;;;5027166;28;20487;-89
2022/01/29 00:22:42;;;;;;;9.77;6.63;;;;;;;;;;5034389;28;20451;-91
2022/01/29 00:25:09;;;;;;;8.17;5.27;;;;;;;;;;5030942;28;20436;-90
2022/01/29 00:27:36;;;;;;;11.80;7.83;;;;;;;;;;5033549;28;20450;-91
2022/01/29 00:30:08;;;;;;;7.47;5.70;;;1.90;99.90;;;;;;5034376;28;20877;-92
2022/01/29 00:32:36;;;;;;;7.87;4.43;;;;;;;;;;5032878;28;20539;-90
2022/01/29 00:35:04;;;;;;;7.93;5.20;;;;;;;;;;5033910;28;20440;-91
2022/01/29 00:37:32;;;;;;;8.83;6.00;;;;;;;;;;5033925;28;20452;-90
2022/01/29 00:39:59;;;;;;;7.80;5.40;;;;;;;;;;5037198;28;20492;-91
2022/01/29 00:42:26;;;;;;;15.60;5.77;;;;;;;;;;5035173;28;20446;-90
2022/01/29 00:44:53;;;;;;;9.60;6.70;;;;;;;;;;5035307;28;20432;-92
2022/01/29 00:47:22;;;;;;;5.17;4.13;;;2.00;99.90;;;;;;5034125;28;20818;-90
2022/01/29 00:49:49;;;;;;;6.30;3.60;;;;;;;;;;5037388;28;20959;-90
2022/01/29 00:52:16;;;;;;;10.60;7.53;;;;;;;;;;5034058;28;20432;-90
2022/01/29 00:54:45;;;;;;;11.33;7.20;;;;;;;;;;5034875;28;20435;-93
2022/01/29 00:57:12;;;;;;;10.67;6.00;;;;;;;;;;5032070;28;20828;-93
2022/01/29 00:59:39;;;;;;;2.47;2.27;;;;;;;;;;5035040;28;20503;-89
2022/01/29 01:02:08;;;;;;;8.67;3.60;;;;;;;;;;5033460;28;20444;-92
2022/01/29 01:04:39;;;;;;;4.63;3.13;;;2.10;99.90;;;;;;5034619;28;20448;-89
2022/01/29 01:07:06;;;;;;;3.17;2.20;;;;;;;;;;5031538;28;20514;-90
2022/01/29 01:09:33;;;;;;;7.00;4.37;;;;;;;;;;5037341;28;20452;-90
2022/01/29 01:12:01;;;;;;;4.70;3.20;;;;;;;;;;5037937;28;20443;-93
2022/01/29 01:14:28;;;;;;;4.07;2.10;;;;;;;;;;5037867;28;20439;-89
2022/01/29 01:16:55;;;;;;;9.27;5.20;;;;;;;;;;5033484;28;20455;-92
2022/01/29 01:19:25;;;;;;;7.17;4.13;;;;;;;;;;5036213;28;20482;-93
2022/01/29 01:21:54;;;;;;;5.80;4.73;;;2.10;99.90;;;;;;5037131;28;20476;-91
2022/01/29 01:24:21;;;;;;;8.77;3.70;;;;;;;;;;5034018;28;20440;-89
2022/01/29 01:26:48;;;;;;;2.23;1.70;;;;;;;;;;5033910;28;20448;-90
2022/01/29 01:29:16;;;;;;;4.90;2.83;;;;;;;;;;5032031;28;20523;-89
2022/01/29 01:31:44;;;;;;;7.57;4.80;;;;;;;;;;5035937;28;20440;-89
2022/01/29 01:34:12;;;;;;;3.73;2.97;;;;;;;;;;5033345;28;20443;-92
2022/01/29 01:36:46;;;;;;;2.77;2.30;;;;;;;;;;5036530;28;20452;-91
2022/01/29 01:39:17;;;;;;;5.40;3.17;;;2.10;99.90;;;;;;5034541;28;20529;-90
2022/01/29 01:41:54;;;;;;;7.67;5.13;;;;;;;;;;5031424;28;20907;-92
2022/01/29 01:44:21;;;;;;;7.83;4.60;;;;;;;;;;5036018;28;20523;-91
2022/01/29 01:46:48;;;;;;;7.90;4.67;;;;;;;;;;5032842;28;20443;-92
2022/01/29 01:49:16;;;;;;;6.87;4.00;;;;;;;;;;5030092;28;20455;-92
2022/01/29 01:51:43;;;;;;;3.60;1.70;;;;;;;;;;5035535;28;20482;-91
2022/01/29 01:54:11;;;;;;;5.70;1.77;;;;;;;;;;4985594;28;20440;-93
2022/01/29 01:56:39;;;;;;;7.50;3.90;;;2.10;99.90;;;;;;5036477;28;20798;-91
2022/01/29 01:59:06;;;;;;;4.17;3.00;;;;;;;;;;5031497;28;20549;-90
2022/01/29 02:01:33;;;;;;;6.20;3.47;;;;;;;;;;5035221;28;20448;-92
2022/01/29 02:04:01;;;;;;;5.87;4.63;;;2.00;99.90;;;;;;5033213;28;20444;-93
2022/01/29 02:06:28;;;;;;;5.43;3.67;;;;;;;;;;5035932;28;20440;-89
2022/01/29 02:08:59;;;;;;;9.27;4.00;;;;;;;;;;5033321;28;20448;-93
2022/01/29 02:11:26;;;;;;;13.27;5.07;;;;;;;;;;5032941;28;20439;-93
2022/01/29 02:13:56;;;;;;;6.13;4.40;;;2.00;99.90;;;;;;5035241;28;20794;-94
2022/01/29 02:16:23;;;;;;;8.30;4.60;;;;;;;;;;5031426;28;20801;-93
2022/01/29 02:18:50;;;;;;;5.80;4.30;;;;;;;;;;5035767;28;20539;-92
2022/01/29 02:21:18;;;;;;;5.40;4.37;;;;;;;;;;5032626;28;20463;-90
2022/01/29 02:23:47;;;;;;;8.00;5.50;;;;;;;;;;5032468;28;20451;-93
2022/01/29 02:26:14;;;;;;;10.80;4.90;;;;;;;;;;5029811;28;20443;-91
2022/01/29 02:28:41;;;;;;;6.77;4.83;;;;;;;;;;5035728;28;20448;-90
2022/01/29 02:31:09;;;;;;;6.13;4.10;;;;;;;;;;5031798;28;20463;-90
2022/01/29 02:33:38;;;;;;;7.80;5.00;;;2.00;99.90;;;;;;5034948;28;20444;-91
2022/01/29 02:36:06;;;;;;;6.40;4.93;;;2.00;99.90;;;;;;5032227;28;20448;-91
2022/01/29 02:38:33;;;;;;;8.10;4.80;;;;;;;;;;5028704;28;20439;-92
2022/01/29 02:41:04;;;;;;;6.30;4.47;;;2.00;99.90;;;;;;5032480;28;20483;-93
2022/01/29 02:43:36;;;;;;;5.70;3.50;;;1.90;99.90;;;;;;5032210;28;20448;-92
2022/01/29 02:46:08;;;;;;;7.03;4.57;;;1.90;99.90;;;;;;5030878;28;20440;-92
2022/01/29 02:48:35;;;;;;;5.37;4.07;;;;;;;;;;5030081;28;20440;-92
2022/01/29 02:51:03;;;;;;;6.90;4.13;;;;;;;;;;5031840;28;20440;-92
2022/01/29 02:53:30;;;;;;;13.30;4.07;;;1.90;99.90;;;;;;5034546;28;20444;-93
2022/01/29 02:55:57;;;;;;;9.33;4.00;;;;;;;;;;5016844;28;20454;-91
2022/01/29 02:58:26;;;;;;;4.03;3.60;;;1.80;99.90;;;;;;5031255;28;20448;-93
2022/01/29 03:00:53;;;;;;;9.37;4.47;;;;;;;;;;5024001;28;20488;-91
2022/01/29 03:03:20;;;;;;;6.97;4.20;;;;;;;;;;5033501;28;20459;-92
2022/01/29 03:05:47;;;;;;;5.20;3.93;;;;;;;;;;5029633;28;20444;-93
2022/01/29 03:08:15;;;;;;;5.37;4.00;;;;;;;;;;5034856;28;20440;-91
2022/01/29 03:10:42;;;;;;;8.23;4.10;;;;;;;;;;5034548;28;20444;-91
2022/01/29 03:13:09;;;;;;;6.27;3.60;;;;;;;;;;5029290;28;20452;-90
2022/01/29 03:15:38;;;;;;;4.57;3.80;;;1.60;99.90;;;;;;5031704;28;20441;-89
2022/01/29 03:18:05;;;;;;;3.87;3.50;;;;;;;;;;5033969;28;20439;-90
2022/01/29 03:20:32;;;;;;;3.63;3.27;;;;;;;;;;5033842;28;20868;-93
2022/01/29 03:23:00;;;;;;;5.23;3.43;;;;;;;;;;5034837;28;20443;-90
2022/01/29 03:25:27;;;;;;;3.43;2.43;;;;;;;;;;5030820;28;20448;-92
2022/01/29 03:27:54;;;;;;;7.63;3.47;;;;;;;;;;5034690;28;20444;-92
2022/01/29 03:30:21;;;;;;;2.93;1.70;;;;;;;;;;5034386;28;20447;-90
2022/01/29 03:32:50;;;;;;;5.67;3.60;;;1.70;99.90;;;;;;5029812;28;20424;-91
2022/01/29 03:35:17;;;;;;;5.13;3.37;;;;;;;;;;5034138;28;20932;-91
2022/01/29 03:37:44;;;;;;;5.00;2.87;;;;;;;;;;5034544;28;20428;-94
2022/01/29 03:40:12;;;;;;;7.10;3.80;;;;;;;;;;5030815;28;20610;-92
2022/01/29 03:42:44;;;;;;;4.13;3.00;;;;;;;;;;5031330;28;20454;-90
2022/01/29 03:45:14;;;;;;;8.63;3.67;;;;;;;;;;5034464;28;20490;-92
2022/01/29 03:47:43;;;;;;;5.77;3.57;;;;;;;;;;5030266;28;20447;-89
2022/01/29 03:50:14;;;;;;;5.97;3.70;;;1.80;99.90;;;;;;5034734;28;20450;-93
2022/01/29 03:52:41;;;;;;;4.00;3.03;;;;;;;;;;5029001;28;20451;-90
2022/01/29 03:55:08;;;;;;;5.83;3.30;;;1.80;99.90;;;;;;5034190;28;20432;-91
2022/01/29 03:57:35;;;;;;;2.67;2.33;;;;;;;;;;5034790;28;20785;-94
2022/01/29 04:00:03;;;;;;;5.40;2.30;;;;;;;;;;5030109;28;20495;-93
2022/01/29 04:02:30;;;;;;;2.93;1.60;;;;;;;;;;5034331;28;20443;-92
2022/01/29 04:04:57;;;;;;;6.80;2.93;;;;;;;;;;5036187;28;20931;-90
2022/01/29 04:07:25;;;;;;;4.20;2.53;;;2.00;99.90;;;;;;5034842;28;20452;-91
2022/01/29 04:09:52;;;;;;;5.27;2.93;;;;;;;;;;5033957;28;20462;-90
2022/01/29 04:12:20;;;;;;;6.00;3.50;;;;;;;;;;5034143;28;20809;-91
2022/01/29 04:14:47;;;;;;;3.57;2.30;;;;;;;;;;5036974;28;20489;-90
2022/01/29 04:17:14;;;;;;;7.50;3.00;;;;;;;;;;5033794;28;20527;-91
2022/01/29 04:19:42;;;;;;;4.50;2.77;;;;;;;;;;5038172;28;20474;-89
2022/01/29 04:22:09;;;;;;;4.20;2.27;;;;;;;;;;5035001;28;20939;-92
2022/01/29 04:24:38;;;;;;;3.47;2.40;;;1.90;99.90;;;;;;5038027;28;20432;-89
2022/01/29 04:27:14;;;;;;;5.10;2.63;;;;;;;;;;5034806;28;20448;-90
2022/01/29 04:29:53;;;;;;;2.20;1.40;;;;;;;;;;5038168;28;20489;-90
2022/01/29 04:32:27;;;;;;;4.63;2.40;;;;;;;;;;5037228;28;20455;-92
2022/01/29 04:34:54;;;;;;;2.70;2.37;;;;;;;;;;5037923;28;20521;-92
2022/01/29 04:37:21;;;;;;;7.70;2.83;;;;;;;;;;5035165;28;20455;-89
2022/01/29 04:39:50;;;;;;;5.53;1.97;;;2.00;99.90;;;;;;5034648;28;20452;-88
2022/01/29 04:42:17;;;;;;;2.87;1.33;;;;;;;;;;5038016;28;20448;-92
2022/01/29 04:44:44;;;;;;;3.50;2.33;;;;;;;;;;5032900;28;20447;-93
2022/01/29 04:47:11;;;;;;;5.97;2.90;;;;;;;;;;5033721;28;20459;-94
2022/01/29 04:49:39;;;;;;;2.77;1.90;;;;;;;;;;5037150;28;20432;-93
2022/01/29 04:52:06;;;;;;;2.73;2.17;;;;;;;;;;5037554;28;20440;-92
2022/01/29 04:54:33;;;;;;;2.90;1.93;;;;;;;;;;5034518;28;20451;-88
2022/01/29 04:57:02;;;;;;;2.67;2.00;;;;;;;;;;5036926;28;20474;-91
2022/01/29 04:59:29;;;;;;;7.73;2.40;;;;;;;;;;5036406;28;20479;-90
2022/01/29 05:01:56;;;;;;;3.00;2.37;;;;;;;;;;5036059;28;20479;-92
2022/01/29 05:04:24;;;;;;;3.57;2.30;;;;;;;;;;5037351;28;20455;-89
2022/01/29 05:06:51;;;;;;;6.03;2.20;;;;;;;;;;5033897;28;20455;-89
2022/01/29 05:09:18;;;;;;;2.97;2.30;;;;;;;;;;5036411;28;20441;-90
2022/01/29 05:11:49;;;;;;;5.90;2.37;;;;;;;;;;5034150;28;20443;-89
2022/01/29 05:14:26;;;;;;;3.30;2.40;;;2.20;99.90;;;;;;5036630;28;20443;-89
2022/01/29 05:25:35;;;;;;;3.33;1.83;;;;;;;;;;5034224;28;20545;-92
2022/01/29 05:28:04;;;;;;;3.20;2.17;;;;;;;;;;5036542;28;20539;-91
2022/01/29 05:30:32;;;;;;;3.03;2.40;;;2.30;99.90;;;;;;5035984;28;20458;-92
2022/01/29 05:33:00;;;;;;;2.50;2.20;;;;;;;;;;5035272;28;20459;-89
2022/01/29 05:35:27;;;;;;;5.60;2.40;;;;;;;;;;5036269;28;20460;-90
2022/01/29 05:37:55;;;;;;;8.30;2.50;;;;;;;;;;5036470;28;20447;-90
2022/01/29 05:40:23;;;;;;;5.77;2.40;;;;;;;;;;5036291;28;20663;-90
2022/01/29 05:42:50;;;;;;;2.10;1.90;;;;;;;;;;5036086;28;20456;-89
2022/01/29 05:45:17;;;;;;;2.90;2.20;;;;;;;;;;5036408;28;20436;-90
2022/01/29 05:47:45;;;;;;;3.40;2.33;;;2.10;99.90;;;;;;5029660;28;20502;-90
2022/01/29 05:50:13;;;;;;;2.80;1.93;;;;;;;;;;5035710;28;20467;-90
2022/01/29 05:52:40;;;;;;;7.17;2.60;;;;;;;;;;5036015;28;20444;-89
2022/01/29 05:55:07;;;;;;;3.77;2.50;;;;;;;;;;5035740;28;20939;-92
2022/01/29 05:57:35;;;;;;;3.07;2.20;;;;;;;;;;5035642;28;20429;-92
2022/01/29 06:00:02;;;;;;;2.00;1.80;;;;;;;;;;5036064;28;20476;-92
2022/01/29 06:02:29;;;;;;;3.13;2.13;;;;;;;;;;5032145;28;20448;-91
2022/01/29 06:04:57;;;;;;;3.90;1.90;;;3.50;99.90;;;;;;5036239;28;20443;-90
2022/01/29 06:07:25;;;;;;;3.50;2.40;;;;;;;;;;5035164;28;20932;-90
2022/01/29 06:09:52;;;;;;;6.00;2.37;;;;;;;;;;5030810;28;20444;-91
2022/01/29 06:12:19;;;;;;;2.73;2.30;;;;;;;;;;5035456;28;20811;-90
2022/01/29 06:14:46;;;;;;;5.47;2.37;;;;;;;;;;5032789;28;20930;-89
2022/01/29 06:17:13;;;;;;;6.30;2.97;;;;;;;;;;5029308;28;20454;-92
2022/01/29 06:19:41;;;;;;;2.47;2.07;;;;;;;;;;5030925;28;20515;-90
2022/01/29 06:22:13;;;;;;;4.03;2.10;;;2.10;99.90;;;;;;5029808;28;20494;-89
2022/01/29 06:24:41;;;;;;;3.87;2.43;;;;;;;;;;5035568;28;20442;-90
2022/01/29 06:27:08;;;;;;;5.93;2.60;;;;;;;;;;5032227;28;20432;-90
2022/01/29 06:29:36;;;;;;;3.97;2.27;;;;;;;;;;5033422;28;20818;-89
2022/01/29 06:32:03;;;;;;;4.40;2.57;;;;;;;;;;5031742;28;20459;-91
2022/01/29 06:34:30;;;;;;;2.60;2.13;;;;;;;;;;5031288;28;20436;-91
2022/01/29 06:36:57;;;;;;;2.90;2.37;;;;;;;;;;5030409;28;20428;-92
2022/01/29 06:39:26;;;;;;;2.70;2.13;;;1.90;99.90;;;;;;5031603;28;20459;-90
2022/01/29 06:41:53;;;;;;;3.00;2.70;;;;;;;;;;5035759;28;20491;-91
2022/01/29 06:44:20;;;;;;;2.70;2.23;;;;;;;;;;5032264;28;20445;-91
2022/01/29 06:46:47;;;;;;;3.10;2.10;;;;;;;;;;5031075;28;20444;-91
2022/01/29 06:49:14;;;;;;;4.83;2.27;;;;;;;;;;5030531;28;20948;-94
2022/01/29 06:51:42;;;;;;;2.13;1.87;;;;;;;;;;5032848;28;20448;-89
2022/01/29 06:54:09;;;;;;;3.33;2.23;;;;;;;;;;5030570;28;20447;-91
2022/01/29 06:56:37;;;;;;;3.83;2.40;;;;;;;;;;5035535;28;20447;-89
2022/01/29 06:59:05;;;;;;;3.30;2.60;;;;;;;;;;5031972;28;20476;-90
2022/01/29 07:01:32;;;;;;;3.70;3.10;;;;;;;;;;5034276;28;20488;-90
2022/01/29 07:03:59;;;;;;;3.90;3.13;;;;;;;;;;5037084;28;20452;-92
2022/01/29 07:06:26;;;;;;;3.13;2.77;;;;;;;;;;5037883;28;20451;-88
2022/01/29 07:08:53;;;;;;;5.43;4.23;;;;;;;;;;5038942;28;20463;-89
2022/01/29 07:11:23;;;;;;;5.90;4.97;;;;;;;;;;5035748;28;20448;-91
2022/01/29 07:14:00;;;;;;;7.73;4.37;;;2.00;99.90;;;;;;5032308;28;20458;-93
2022/01/29 07:16:28;;;;;;;5.07;3.20;;;;;;;;;;5031513;28;20778;-90
2022/01/29 07:18:55;;;;;;;6.93;2.90;;;;;;;;;;5033349;28;21082;-90
2022/01/29 07:21:22;;;;;;;4.00;2.90;;;;;;;;;;5044706;28;20483;-90
2022/01/29 07:23:49;;;;;;;3.57;2.73;;;;;;;;;;5041053;28;20448;-90
2022/01/29 07:26:17;;;;;;;3.73;2.70;;;;;;;;;;5029402;28;20455;-90
2022/01/29 07:28:44;;;;;;;5.50;3.70;;;;;;;;;;5035848;28;20440;-92
2022/01/29 07:31:12;;;;;;;6.23;3.27;;;2.00;99.90;;;;;;5037566;28;20478;-90
2022/01/29 07:33:39;;;;;;;3.40;2.50;;;;;;;;;;5043636;28;20468;-89
2022/01/29 07:36:07;;;;;;;3.20;2.07;;;2.30;99.90;;;;;;5041369;28;20440;-90
2022/01/29 07:38:34;;;;;;;3.43;2.47;;;;;;;;;;5041275;28;20843;-89
2022/01/29 07:41:01;;;;;;;5.03;2.87;;;;;;;;;;5045364;28;20479;-90
2022/01/29 07:43:28;;;;;;;5.87;2.70;;;;;;;;;;5044436;28;20443;-88
2022/01/29 07:45:55;;;;;;;2.33;2.03;;;;;;;;;;5037151;28;20439;-88
2022/01/29 07:48:24;;;;;;;7.10;5.60;;;2.10;99.90;;;;;;5039707;28;20436;-91
2022/01/29 07:50:51;;;;;;;4.13;3.00;;;;;;;;;;5038335;28;20471;-92
2022/01/29 07:53:19;;;;;;;3.73;2.27;;;;;;;;;;5035425;28;20440;-89
2022/01/29 07:55:46;;;;;;;5.90;3.53;;;;;;;;;;5034588;28;20459;-89
2022/01/29 07:58:13;;;;;;;5.93;3.47;;;;;;;;;;5030904;28;20498;-92
2022/01/29 08:00:40;;;;;;;4.60;3.37;;;;;;;;;;5035036;28;20476;-90
2022/01/29 08:03:08;;;;;;;22.77;15.33;;;;;;;;;;5032442;28;20448;-89
2022/01/29 08:05:36;;;;;;;24.73;14.80;;;2.30;99.90;;;;;;5034665;28;20436;-91
2022/01/29 08:08:03;;;;;;;6.60;5.53;;;;;;;;;;5034905;28;20432;-89
2022/01/29 08:10:30;;;;;;;12.90;8.90;;;;;;;;;;5033475;28;20443;-91
2022/01/29 08:12:57;;;;;;;3.17;2.30;;;;;;;;;;5034750;28;20436;-91
2022/01/29 08:15:25;;;;;;;19.07;11.60;;;;;;;;;;5036544;28;20436;-93
2022/01/29 08:17:52;;;;;;;20.80;11.67;;;;;;;;;;5034628;28;20784;-90
2022/01/29 08:20:19;;;;;;;9.53;6.23;;;;;;;;;;5032826;28;20946;-91
2022/01/29 08:22:47;;;;;;;4.30;3.83;;;2.80;99.90;;;;;;5039891;28;20487;-90
2022/01/29 08:25:15;;;;;;;5.17;3.97;;;2.80;99.90;;;;;;5033579;28;20475;-88
2022/01/29 08:27:42;;;;;;;2.90;2.20;;;;;;;;;;5041520;28;20825;-88
2022/01/29 08:30:10;;;;;;;4.20;2.87;;;;;;;;;;5056349;23;20856;-87
2022/01/29 08:32:41;;;;;;;5.17;3.80;;;;;;;;;;5056225;28;20478;-92
2022/01/29 08:35:09;;;;;;;3.90;2.70;;;3.10;99.90;;;;;;5055621;28;20435;-91
2022/01/29 08:37:36;;;;;;;2.87;1.67;;;;;;;;;;5053543;28;20531;-88
2022/01/29 08:40:06;;;;;;;3.53;3.00;;;3.20;99.90;;;;;;5054317;28;20454;-88
2022/01/29 08:42:33;;;;;;;3.77;2.53;;;;;;;;;;5052746;28;20482;-89
2022/01/29 08:45:02;;;;;;;2.77;2.33;;;3.30;99.90;;;;;;5050665;28;20447;-91
2022/01/29 08:47:29;;;;;;;5.77;2.83;;;;;;;;;;5052282;28;20448;-88
2022/01/29 08:49:56;;;;;;;3.60;1.83;;;;;;;;;;5052707;28;20949;-90
2022/01/29 08:52:24;;;;;;;2.37;2.17;;;;;;;;;;5053451;28;20447;-87
2022/01/29 08:54:51;;;;;;;4.70;1.87;;;;;;;;;;5056183;28;20451;-89
2022/01/29 08:57:19;;;;;;;3.27;2.73;;;3.50;99.90;;;;;;5052784;28;20438;-92
2022/01/29 08:59:47;;;;;;;6.10;2.60;;;;;;;;;;5054360;28;20439;-92
2022/01/29 09:02:14;;;;;;;5.60;1.63;;;;;;;;;;5056309;28;20501;-91
2022/01/29 09:04:41;;;;;;;6.70;3.00;;;;;;;;;;5055098;28;20447;-90
2022/01/29 09:07:09;;;;;;;3.60;2.87;;;;;;;;;;5057766;28;20434;-88
2022/01/29 09:09:40;;;;;;;2.90;1.60;;;;;;;;;;5057485;28;20536;-91
2022/01/29 09:12:08;;;;;;;4.53;1.87;;;3.60;99.90;;;;;;5055748;28;20478;-89
2022/01/29 09:14:36;;;;;;;2.50;2.00;;;3.70;99.90;;;;;;5056612;28;20813;-90
2022/01/29 09:17:04;;;;;;;4.13;2.50;;;;;;;;;;5056037;28;20462;-89
2022/01/29 09:19:31;;;;;;;1.10;1.03;;;;;;;;;;5056665;28;20443;-90
2022/01/29 09:21:58;;;;;;;4.30;3.00;;;;;;;;;;5056700;28;20838;-92
2022/01/29 09:24:25;;;;;;;6.30;3.23;;;;;;;;;;5054916;28;20953;-91
2022/01/29 09:26:53;;;;;;;3.43;1.80;;;;;;;;;;5052810;28;20497;-89
2022/01/29 09:29:20;;;;;;;2.60;1.30;;;;;;;;;;5056123;28;20487;-91
2022/01/29 09:31:48;;;;;;;3.20;1.87;;;4.60;99.90;;;;;;5051795;28;20825;-92
2022/01/29 09:34:15;;;;;;;4.10;2.60;;;;;;;;;;5055687;28;20451;-88
2022/01/29 09:36:45;;;;;;;4.67;3.00;;;4.20;99.90;;;;;;5056509;28;20470;-91
2022/01/29 09:39:12;;;;;;;1.77;1.47;;;;;;;;;;5056110;28;20450;-90
2022/01/29 09:41:44;;;;;;;2.80;2.50;;;5.00;99.90;;;;;;5049356;28;20486;-91
2022/01/29 09:44:33;;;;;;;1.50;1.00;;;;;;;;;;5055689;28;20447;-95
2022/01/29 09:47:02;;;;;;;2.40;1.80;;;;;;;;;;5056348;28;20446;-93
2022/01/29 09:49:32;;;;;;;4.57;2.50;;;5.60;99.90;;;;;;5057617;28;20462;-91
2022/01/29 09:51:59;;;;;;;4.50;3.10;;;;;;;;;;5057885;28;20436;-89
2022/01/29 09:54:27;;;;;;;2.13;1.50;;;;;;;;;;5056147;28;20527;-88
2022/01/29 09:56:54;;;;;;;4.67;3.33;;;;;;;;;;5055251;28;20451;-90
2022/01/29 09:59:21;;;;;;;3.20;2.53;;;;;;;;;;5055764;28;20454;-87
2022/01/29 10:01:49;;;;;;;2.10;1.90;;;;;;;;;;5056292;28;20488;-88
2022/01/29 10:04:17;;;;;;;3.27;2.13;;;6.30;99.90;;;;;;5059922;28;20889;-91
2022/01/29 10:06:47;;;;;;;5.13;3.67;;;;;;;;;;5060041;28;20445;-90
2022/01/29 10:09:33;;;;;;;3.00;2.10;;;6.50;99.90;;;;;;5071880;23;20440;-86
2022/01/29 10:12:32;;;;;;;3.20;2.70;;;7.00;99.90;;;;;;5017557;28;20453;-89
2022/01/29 10:15:00;;;;;;;3.40;1.67;;;7.00;99.90;;;;;;5022514;28;20454;-89
2022/01/29 10:17:45;;;;;;;1.80;0.93;;;7.10;99.90;;;;;;5018142;28;20924;-88
2022/01/29 10:20:16;;;;;;;3.10;2.17;;;6.90;99.90;;;;;;5025298;28;20458;-91
2022/01/29 10:22:47;;;;;;;2.10;1.57;;;6.70;99.90;;;;;;5018964;28;20506;-91
2022/01/29 10:25:15;;;;;;;5.00;3.50;;;6.50;99.90;;;;;;5019573;28;20473;-89
2022/01/29 10:28:06;;;;;;;3.80;3.13;;;6.30;99.90;;;;;;5011663;28;20444;-90
2022/01/29 10:30:34;;;;;;;4.10;2.20;;;;;;;;;;5009651;28;21042;-91
2022/01/29 10:33:16;;;;;;;3.03;2.37;;;5.70;99.90;;;;;;5014615;28;20454;-91
2022/01/29 10:35:46;;;;;;;3.00;2.27;;;5.70;99.90;;;;;;5015419;28;20457;-89
2022/01/29 10:38:13;;;;;;;4.30;3.33;;;;;;;;;;5012575;28;20514;-88
2022/01/29 10:40:41;;;;;;;6.60;3.80;;;;;;;;;;5015206;28;20975;-91
2022/01/29 10:43:09;;;;;;;37.30;19.37;;;;;;;;;;5015147;28;20570;-91
2022/01/29 10:45:37;;;;;;;16.13;9.13;;;6.10;99.90;;;;;;5011989;28;20525;-89
2022/01/29 10:48:06;;;;;;;7.73;4.27;;;6.00;99.90;;;;;;5014874;28;20450;-94
2022/01/29 10:50:34;;;;;;;13.60;7.03;;;5.80;99.90;;;;;;5015686;28;20455;-92
2022/01/29 10:53:27;;;;;;;12.87;4.47;;;5.80;99.90;;;;;;5014833;28;20527;-91
2022/01/29 10:56:03;;;;;;;5.70;2.03;;;5.80;99.90;;;;;;5014922;28;20451;-88
2022/01/29 10:58:30;;;;;;;1.33;1.20;;;;;;;;;;5015120;28;20826;-91
2022/01/29 11:01:14;;;;;;;2.00;1.60;;;5.80;99.90;;;;;;5014933;28;20459;-88
2022/01/29 11:03:42;;;;;;;11.93;8.20;;;;;;;;;;5016173;28;20500;-91
2022/01/29 11:06:11;;;;;;;3.03;2.10;;;5.80;99.90;;;;;;5014958;28;20463;-90
2022/01/29 11:08:40;;;;;;;4.23;2.50;;;5.60;99.90;;;;;;5015610;28;20937;-93
2022/01/29 11:11:09;;;;;;;2.93;1.60;;;5.90;99.90;;;;;;5029018;28;20476;-93
2022/01/29 11:13:37;;;;;;;2.90;2.10;;;5.80;99.90;;;;;;5029814;28;20454;-90
2022/01/29 11:16:05;;;;;;;2.67;2.47;;;5.80;99.90;;;;;;5031237;28;20450;-90
2022/01/29 11:18:33;;;;;;;2.40;1.30;;;5.70;99.90;;;;;;5035263;28;20451;-90
2022/01/29 11:21:01;;;;;;;3.77;1.33;;;5.60;99.90;;;;;;4990800;28;20447;-86
2022/01/29 11:23:29;;;;;;;1.20;0.80;;;5.60;99.90;;;;;;4992210;28;20489;-91
2022/01/29 11:26:00;;;;;;;5.20;3.80;;;5.70;99.90;;;;;;4993070;28;20451;-88
2022/01/29 11:28:29;;;;;;;3.57;2.73;;;5.60;99.90;;;;;;4991775;28;20461;-91
2022/01/29 11:31:21;;;;;;;4.57;4.00;;;5.80;99.90;;;;;;4993026;28;20586;-88
2022/01/29 11:34:22;;;;;;;7.03;6.03;;;5.70;99.90;;;;;;4993223;28;20457;-90
2022/01/29 11:37:04;;;;;;;4.43;3.37;;;5.70;99.90;;;;;;4948686;28;20473;-87
2022/01/29 11:39:33;;;;;;;2.30;2.03;;;;;;;;;;5021538;28;20928;-89
2022/01/29 11:42:32;;;;;;;1.47;1.13;;;5.50;99.90;;;;;;5034101;28;20879;-89
2022/01/29 11:45:35;;;;;;;2.13;1.93;;;5.60;99.90;;;;;;5034775;28;20448;-91
2022/01/29 11:48:02;;;;;;;2.33;2.13;;;;;;;;;;5033125;28;20479;-89
2022/01/29 11:50:46;;;;;;;2.10;1.47;;;5.60;99.90;;;;;;5032642;28;20436;-88
2022/01/29 11:53:15;;;;;;;2.77;1.77;;;5.80;99.90;;;;;;5031542;28;20452;-88
2022/01/29 11:55:45;;;;;;;2.73;2.43;;;5.70;99.90;;;;;;5031839;28;20472;-89
2022/01/29 11:58:30;;;;;;;2.40;2.13;;;5.00;99.90;;;;;;5033197;28;20454;-91
2022/01/29 12:00:58;;;;;;;2.53;1.83;;;5.70;99.90;;;;;;5033942;28;20443;-87
2022/01/29 12:03:54;;;;;;;3.00;1.10;;;5.40;99.90;;;;;;5034970;28;20517;-88
2022/01/29 12:06:38;;;;;;;3.03;2.10;;;5.80;99.90;;;;;;5034665;28;20524;-89
2022/01/29 12:09:24;;;;;;;1.90;0.60;;;5.80;99.90;;;;;;5033719;28;20448;-89
2022/01/29 12:12:17;;;;;;;2.50;1.57;;;6.10;99.90;;;;;;5034364;28;20468;-89
2022/01/29 12:14:47;;;;;;;7.13;5.50;;;5.80;99.90;;;;;;5031749;28;20452;-90
2022/01/29 12:17:44;;;;;;;2.63;2.20;;;6.00;99.90;;;;;;5027787;28;20446;-89
2022/01/29 12:20:13;;;;;;;1.10;1.00;;;5.80;99.90;;;;;;5037109;28;20481;-88
2022/01/29 12:22:42;;;;;;;2.70;2.03;;;5.70;99.90;;;;;;5035368;28;20553;-89
2022/01/29 12:25:10;;;;;;;1.90;1.40;;;5.50;99.90;;;;;;5034257;28;20471;-88
2022/01/29 12:27:46;;;;;;;1.33;1.13;;;5.40;99.90;;;;;;5035144;28;20461;-88
2022/01/29 12:30:20;;;;;;;2.87;1.40;;;5.30;99.90;;;;;;5047117;28;20507;-90
2022/01/29 12:32:59;;;;;;;2.33;1.80;;;5.40;99.90;;;;;;5035001;28;20457;-89
2022/01/29 12:35:35;;;;;;;3.07;2.20;;;4.90;99.90;;;;;;5036361;28;20467;-94
2022/01/29 12:38:02;;;;;;;1.50;1.30;;;;;;;;;;5038257;28;20451;-90
2022/01/29 12:40:36;;;;;;;2.57;1.60;;;;;;;;;;5030907;28;20831;-90
2022/01/29 12:43:10;;;;;;;8.57;5.37;;;;;;;;;;5037879;28;20538;-90
2022/01/29 12:45:39;;;;;;;2.10;1.30;;;5.40;99.90;;;;;;5038283;28;20456;-93
2022/01/29 12:48:12;;;;;;;2.00;1.67;;;5.50;99.90;;;;;;5039994;28;20448;-86
2022/01/29 12:50:41;;;;;;;1.67;1.57;;;5.20;99.90;;;;;;5038424;28;20448;-88
2022/01/29 12:53:09;;;;;;;2.93;1.60;;;5.10;99.90;;;;;;5038879;28;20530;-90
2022/01/29 12:55:36;;;;;;;2.97;1.67;;;;;;;;;;5045250;28;20460;-89
2022/01/29 12:58:06;;;;;;;5.47;1.93;;;5.20;99.90;;;;;;5048553;28;20535;-88
2022/01/29 13:00:34;;;;;;;1.60;1.43;;;;;;;;;;5044922;28;20547;-92
2022/01/29 13:03:10;;;;;;;5.17;3.40;;;5.20;99.90;;;;;;5033239;28;20565;-90
2022/01/29 13:05:42;;;;;;;1.77;1.60;;;5.30;99.90;;;;;;5039477;28;20458;-91
2022/01/29 13:08:10;;;;;;;2.83;1.63;;;;;;;;;;5036570;28;20892;-92
2022/01/29 13:10:40;;;;;;;2.30;1.77;;;5.10;99.90;;;;;;5025622;28;20500;-92
2022/01/29 13:13:28;;;;;;;1.80;1.33;;;;;;;;;;5020247;28;20455;-93
2022/01/29 13:15:55;;;;;;;2.63;1.80;;;;;;;;;;5022157;28;20549;-93
2022/01/29 13:18:24;;;;;;;2.83;2.40;;;;;;;;;;5018277;28;20449;-92
2022/01/29 13:20:52;;;;;;;2.60;1.80;;;5.40;99.90;;;;;;5022579;28;20454;-92
2022/01/29 13:23:19;;;;;;;3.10;1.50;;;;;;;;;;5018296;28;20489;-93
2022/01/29 13:25:47;;;;;;;1.50;1.27;;;5.10;99.90;;;;;;5022215;28;20442;-93
2022/01/29 13:28:16;;;;;;;2.33;2.07;;;5.20;99.90;;;;;;5022861;28;20437;-92
2022/01/29 13:30:44;;;;;;;2.73;1.47;;;;;;;;;;5037672;28;20456;-91
2022/01/29 13:33:14;;;;;;;1.07;0.93;;;5.10;99.90;;;;;;5034320;28;20440;-92
2022/01/29 13:35:48;;;;;;;3.47;1.50;;;5.10;99.90;;;;;;5034263;28;20460;-93
2022/01/29 13:38:34;;;;;;;2.50;1.70;;;5.10;99.90;;;;;;5053656;28;20449;-94
2022/01/29 13:41:04;;;;;;;2.47;2.10;;;5.10;99.90;;;;;;5056469;28;20477;-94
2022/01/29 13:43:36;;;;;;;4.50;4.10;;;5.10;99.90;;;;;;5056558;28;20479;-92
2022/01/29 13:46:04;;;;;;;2.40;1.63;;;5.10;99.90;;;;;;5036238;28;20445;-93
2022/01/29 13:48:47;;;;;;;4.60;1.20;;;5.10;99.90;;;;;;5041181;28;20460;-93
2022/01/29 13:51:29;;;;;;;2.73;0.90;;;5.10;99.90;;;;;;5020664;23;20492;-93
2022/01/29 13:53:58;;;;;;;3.20;1.20;;;5.10;99.90;;;;;;4963786;28;20481;-92
2022/01/29 13:56:25;;;;;;;1.23;1.13;;;;;;;;;;4965038;28;20448;-92
2022/01/29 13:58:56;;;;;;;2.17;1.33;;;5.10;99.90;;;;;;4951492;28;20448;-92
2022/01/29 14:01:38;;;;;;;2.03;1.30;;;5.10;99.90;;;;;;4950321;28;21013;-92
2022/01/29 14:04:05;;;;;;;2.67;1.93;;;;;;;;;;4947672;28;20508;-92
2022/01/29 14:06:37;;;;;;;2.00;1.00;;;;;;;;;;4948499;28;20445;-92
2022/01/29 14:09:22;;;;;;;1.67;1.47;;;5.20;99.90;;;;;;4967264;28;20456;-93
2022/01/29 14:12:04;;;;;;;1.50;1.20;;;5.60;99.90;;;;;;4955186;28;20451;-92
2022/01/29 14:14:33;;;;;;;2.37;1.57;;;5.20;99.90;;;;;;4971229;28;20464;-91
2022/01/29 14:17:13;;;;;;;1.60;1.20;;;5.20;99.90;;;;;;4952644;28;20441;-94
2022/01/29 14:19:41;;;;;;;2.83;1.27;;;;;;;;;;4947143;29;20539;-93
2022/01/29 14:22:14;;;;;;;1.60;1.27;;;5.20;99.90;;;;;;4968669;28;20439;-94
2022/01/29 14:24:43;;;;;;;2.10;1.47;;;5.30;99.90;;;;;;4967875;28;20495;-91